sensor_id;sensor_type;location;lat;lon;timestamp;P1;durP1;ratioP1;P2;durP2;ratioP2
70216;SDS011;65567;55.684;37.570;2024-03-07T00:00:02;7.60;;;2.30;;
70216;SDS011;65567;55.684;37.570;2024-03-07T00:02:43;6.72;;;2.33;;
70216;SDS011;65567;55.684;37.570;2024-03-07T00:05:13;6.53;;;2.00;;
70216;SDS011;65567;55.684;37.570;2024-03-07T00:07:47;7.00;;;2.10;;
70216;SDS011;65567;55.684;37.570;2024-03-07T00:10:13;4.90;;;2.25;;
70216;SDS011;65567;55.684;37.570;2024-03-07T00:12:40;6.35;;;2.20;;
70216;SDS011;65567;55.684;37.570;2024-03-07T00:15:10;8.48;;;2.47;;
70216;SDS011;65567;55.684;37.570;2024-03-07T00:17:38;8.95;;;2.28;;
70216;SDS011;65567;55.684;37.570;2024-03-07T00:20:07;6.63;;;2.00;;
70216;SDS011;65567;55.684;37.570;2024-03-07T00:22:42;6.43;;;2.05;;
70216;SDS011;65567;55.684;37.570;2024-03-07T00:25:09;6.43;;;2.42;;
70216;SDS011;65567;55.684;37.570;2024-03-07T00:27:36;5.07;;;1.95;;
70216;SDS011;65567;55.684;37.570;2024-03-07T00:30:05;6.05;;;2.28;;
70216;SDS011;65567;55.684;37.570;2024-03-07T00:32:34;4.82;;;2.15;;
70216;SDS011;65567;55.684;37.570;2024-03-07T00:35:07;6.97;;;2.00;;
70216;SDS011;65567;55.684;37.570;2024-03-07T00:37:36;6.82;;;2.40;;
70216;SDS011;65567;55.684;37.570;2024-03-07T00:40:02;5.25;;;2.00;;
70216;SDS011;65567;55.684;37.570;2024-03-07T00:42:29;6.22;;;2.10;;
70216;SDS011;65567;55.684;37.570;2024-03-07T00:44:54;4.55;;;2.03;;
70216;SDS011;65567;55.684;37.570;2024-03-07T00:47:21;8.13;;;2.13;;
70216;SDS011;65567;55.684;37.570;2024-03-07T00:49:46;6.32;;;2.08;;
70216;SDS011;65567;55.684;37.570;2024-03-07T00:52:13;8.95;;;2.33;;
70216;SDS011;65567;55.684;37.570;2024-03-07T00:54:39;6.32;;;2.30;;
70216;SDS011;65567;55.684;37.570;2024-03-07T00:57:05;7.43;;;2.63;;
70216;SDS011;65567;55.684;37.570;2024-03-07T00:59:33;5.80;;;2.33;;
70216;SDS011;65567;55.684;37.570;2024-03-07T01:01:58;4.72;;;2.13;;
70216;SDS011;65567;55.684;37.570;2024-03-07T01:04:24;9.40;;;2.22;;
70216;SDS011;65567;55.684;37.570;2024-03-07T01:06:56;6.50;;;2.30;;
70216;SDS011;65567;55.684;37.570;2024-03-07T01:09:23;7.22;;;2.72;;
70216;SDS011;65567;55.684;37.570;2024-03-07T01:11:49;11.82;;;2.30;;
70216;SDS011;65567;55.684;37.570;2024-03-07T01:14:14;5.40;;;2.35;;
70216;SDS011;65567;55.684;37.570;2024-03-07T01:16:43;7.57;;;2.60;;
70216;SDS011;65567;55.684;37.570;2024-03-07T01:19:09;8.50;;;2.53;;
70216;SDS011;65567;55.684;37.570;2024-03-07T01:21:35;10.40;;;2.30;;
70216;SDS011;65567;55.684;37.570;2024-03-07T01:24:01;6.50;;;2.33;;
70216;SDS011;65567;55.684;37.570;2024-03-07T01:26:28;7.72;;;2.45;;
70216;SDS011;65567;55.684;37.570;2024-03-07T01:28:54;6.22;;;2.08;;
70216;SDS011;65567;55.684;37.570;2024-03-07T01:31:23;5.37;;;2.20;;
70216;SDS011;65567;55.684;37.570;2024-03-07T01:33:49;6.07;;;2.30;;
70216;SDS011;65567;55.684;37.570;2024-03-07T01:36:15;8.00;;;2.47;;
70216;SDS011;65567;55.684;37.570;2024-03-07T01:38:41;10.18;;;2.13;;
70216;SDS011;65567;55.684;37.570;2024-03-07T01:41:07;6.80;;;2.60;;
70216;SDS011;65567;55.684;37.570;2024-03-07T01:43:33;6.18;;;2.22;;
70216;SDS011;65567;55.684;37.570;2024-03-07T01:45:59;5.20;;;2.30;;
70216;SDS011;65567;55.684;37.570;2024-03-07T01:48:28;6.80;;;2.60;;
70216;SDS011;65567;55.684;37.570;2024-03-07T01:50:59;5.57;;;2.80;;
70216;SDS011;65567;55.684;37.570;2024-03-07T01:53:25;6.50;;;2.53;;
70216;SDS011;65567;55.684;37.570;2024-03-07T01:55:53;5.20;;;2.53;;
70216;SDS011;65567;55.684;37.570;2024-03-07T01:58:21;7.25;;;2.10;;
70216;SDS011;65567;55.684;37.570;2024-03-07T02:00:49;6.45;;;2.10;;
70216;SDS011;65567;55.684;37.570;2024-03-07T02:03:14;5.03;;;2.83;;
70216;SDS011;65567;55.684;37.570;2024-03-07T02:05:40;5.47;;;2.10;;
70216;SDS011;65567;55.684;37.570;2024-03-07T02:08:06;6.88;;;2.05;;
70216;SDS011;65567;55.684;37.570;2024-03-07T02:10:32;3.58;;;1.90;;
70216;SDS011;65567;55.684;37.570;2024-03-07T02:12:58;4.85;;;1.90;;
70216;SDS011;65567;55.684;37.570;2024-03-07T02:15:26;5.72;;;2.10;;
70216;SDS011;65567;55.684;37.570;2024-03-07T02:17:52;7.72;;;2.67;;
70216;SDS011;65567;55.684;37.570;2024-03-07T02:20:18;7.97;;;2.13;;
70216;SDS011;65567;55.684;37.570;2024-03-07T02:22:43;7.40;;;2.35;;
70216;SDS011;65567;55.684;37.570;2024-03-07T02:25:09;5.25;;;2.13;;
70216;SDS011;65567;55.684;37.570;2024-03-07T02:27:38;7.78;;;2.33;;
70216;SDS011;65567;55.684;37.570;2024-03-07T02:30:04;6.28;;;2.15;;
70216;SDS011;65567;55.684;37.570;2024-03-07T02:32:33;5.15;;;2.05;;
70216;SDS011;65567;55.684;37.570;2024-03-07T02:34:59;8.52;;;2.05;;
70216;SDS011;65567;55.684;37.570;2024-03-07T02:37:25;5.88;;;2.17;;
70216;SDS011;65567;55.684;37.570;2024-03-07T02:39:51;5.32;;;2.10;;
70216;SDS011;65567;55.684;37.570;2024-03-07T02:42:17;8.60;;;2.03;;
70216;SDS011;65567;55.684;37.570;2024-03-07T02:44:43;5.72;;;2.03;;
70216;SDS011;65567;55.684;37.570;2024-03-07T02:47:09;5.38;;;2.20;;
70216;SDS011;65567;55.684;37.570;2024-03-07T02:49:35;8.32;;;2.10;;
70216;SDS011;65567;55.684;37.570;2024-03-07T02:52:01;9.23;;;2.13;;
70216;SDS011;65567;55.684;37.570;2024-03-07T02:54:27;5.78;;;1.88;;
70216;SDS011;65567;55.684;37.570;2024-03-07T02:56:53;4.18;;;2.03;;
70216;SDS011;65567;55.684;37.570;2024-03-07T02:59:18;4.82;;;2.30;;
70216;SDS011;65567;55.684;37.570;2024-03-07T03:01:44;7.47;;;2.33;;
70216;SDS011;65567;55.684;37.570;2024-03-07T03:04:11;5.15;;;1.77;;
70216;SDS011;65567;55.684;37.570;2024-03-07T03:06:37;8.73;;;2.00;;
70216;SDS011;65567;55.684;37.570;2024-03-07T03:09:03;4.75;;;1.60;;
70216;SDS011;65567;55.684;37.570;2024-03-07T03:11:30;8.85;;;2.13;;
70216;SDS011;65567;55.684;37.570;2024-03-07T03:13:56;3.28;;;1.85;;
70216;SDS011;65567;55.684;37.570;2024-03-07T03:16:22;9.32;;;2.20;;
70216;SDS011;65567;55.684;37.570;2024-03-07T03:18:47;6.55;;;1.92;;
70216;SDS011;65567;55.684;37.570;2024-03-07T03:21:13;4.72;;;1.90;;
70216;SDS011;65567;55.684;37.570;2024-03-07T03:23:40;5.90;;;1.92;;
70216;SDS011;65567;55.684;37.570;2024-03-07T03:26:06;6.75;;;2.17;;
70216;SDS011;65567;55.684;37.570;2024-03-07T03:28:32;4.68;;;1.90;;
70216;SDS011;65567;55.684;37.570;2024-03-07T03:30:57;6.45;;;1.88;;
70216;SDS011;65567;55.684;37.570;2024-03-07T03:33:23;6.90;;;1.90;;
70216;SDS011;65567;55.684;37.570;2024-03-07T03:35:49;5.05;;;2.05;;
70216;SDS011;65567;55.684;37.570;2024-03-07T03:38:14;13.82;;;2.33;;
70216;SDS011;65567;55.684;37.570;2024-03-07T03:40:41;9.18;;;2.67;;
70216;SDS011;65567;55.684;37.570;2024-03-07T03:43:09;6.57;;;2.92;;
70216;SDS011;65567;55.684;37.570;2024-03-07T03:45:35;9.43;;;3.33;;
70216;SDS011;65567;55.684;37.570;2024-03-07T03:48:01;9.52;;;3.33;;
70216;SDS011;65567;55.684;37.570;2024-03-07T03:50:27;8.05;;;3.58;;
70216;SDS011;65567;55.684;37.570;2024-03-07T03:52:53;7.25;;;3.40;;
70216;SDS011;65567;55.684;37.570;2024-03-07T03:55:20;6.90;;;3.45;;
70216;SDS011;65567;55.684;37.570;2024-03-07T03:57:46;8.80;;;3.00;;
70216;SDS011;65567;55.684;37.570;2024-03-07T04:00:12;13.77;;;3.60;;
70216;SDS011;65567;55.684;37.570;2024-03-07T04:02:39;8.60;;;3.42;;
70216;SDS011;65567;55.684;37.570;2024-03-07T04:05:05;9.65;;;3.25;;
70216;SDS011;65567;55.684;37.570;2024-03-07T04:07:31;13.25;;;3.67;;
70216;SDS011;65567;55.684;37.570;2024-03-07T04:09:57;8.85;;;3.38;;
70216;SDS011;65567;55.684;37.570;2024-03-07T04:12:28;9.10;;;2.70;;
70216;SDS011;65567;55.684;37.570;2024-03-07T04:14:54;5.43;;;2.65;;
70216;SDS011;65567;55.684;37.570;2024-03-07T04:17:21;5.93;;;3.40;;
70216;SDS011;65567;55.684;37.570;2024-03-07T04:19:47;7.38;;;2.40;;
70216;SDS011;65567;55.684;37.570;2024-03-07T04:22:16;10.13;;;2.88;;
70216;SDS011;65567;55.684;37.570;2024-03-07T04:24:44;5.50;;;2.42;;
70216;SDS011;65567;55.684;37.570;2024-03-07T04:27:10;9.07;;;2.60;;
70216;SDS011;65567;55.684;37.570;2024-03-07T04:29:36;8.60;;;2.55;;
70216;SDS011;65567;55.684;37.570;2024-03-07T04:32:02;7.65;;;2.60;;
70216;SDS011;65567;55.684;37.570;2024-03-07T04:34:30;5.38;;;2.15;;
70216;SDS011;65567;55.684;37.570;2024-03-07T04:36:56;8.68;;;2.40;;
70216;SDS011;65567;55.684;37.570;2024-03-07T04:39:24;9.45;;;2.17;;
70216;SDS011;65567;55.684;37.570;2024-03-07T04:41:55;4.80;;;2.28;;
70216;SDS011;65567;55.684;37.570;2024-03-07T04:44:21;7.47;;;2.92;;
70216;SDS011;65567;55.684;37.570;2024-03-07T04:46:50;6.45;;;2.22;;
70216;SDS011;65567;55.684;37.570;2024-03-07T04:49:23;8.35;;;2.63;;
70216;SDS011;65567;55.684;37.570;2024-03-07T04:51:50;7.72;;;2.28;;
70216;SDS011;65567;55.684;37.570;2024-03-07T04:54:18;9.52;;;2.20;;
70216;SDS011;65567;55.684;37.570;2024-03-07T04:56:47;13.65;;;2.35;;
70216;SDS011;65567;55.684;37.570;2024-03-07T04:59:14;5.82;;;2.35;;
70216;SDS011;65567;55.684;37.570;2024-03-07T05:01:41;7.40;;;2.38;;
70216;SDS011;65567;55.684;37.570;2024-03-07T05:04:08;4.57;;;1.95;;
70216;SDS011;65567;55.684;37.570;2024-03-07T05:06:34;4.93;;;2.45;;
70216;SDS011;65567;55.684;37.570;2024-03-07T05:09:01;5.82;;;2.47;;
70216;SDS011;65567;55.684;37.570;2024-03-07T05:11:28;10.15;;;3.38;;
70216;SDS011;65567;55.684;37.570;2024-03-07T05:13:54;6.82;;;2.55;;
70216;SDS011;65567;55.684;37.570;2024-03-07T05:16:24;8.02;;;2.45;;
70216;SDS011;65567;55.684;37.570;2024-03-07T05:18:50;8.43;;;2.50;;
70216;SDS011;65567;55.684;37.570;2024-03-07T05:21:17;8.52;;;2.35;;
70216;SDS011;65567;55.684;37.570;2024-03-07T05:24:00;5.32;;;2.10;;
70216;SDS011;65567;55.684;37.570;2024-03-07T05:26:28;8.27;;;2.50;;
70216;SDS011;65567;55.684;37.570;2024-03-07T05:29:06;9.43;;;2.80;;
70216;SDS011;65567;55.684;37.570;2024-03-07T05:31:35;6.38;;;2.40;;
70216;SDS011;65567;55.684;37.570;2024-03-07T05:34:10;8.32;;;2.25;;
70216;SDS011;65567;55.684;37.570;2024-03-07T05:36:37;9.30;;;1.75;;
70216;SDS011;65567;55.684;37.570;2024-03-07T05:39:10;7.63;;;2.47;;
70216;SDS011;65567;55.684;37.570;2024-03-07T05:41:37;9.32;;;2.42;;
70216;SDS011;65567;55.684;37.570;2024-03-07T05:44:03;8.15;;;2.53;;
70216;SDS011;65567;55.684;37.570;2024-03-07T05:49:00;5.65;;;2.42;;
70216;SDS011;65567;55.684;37.570;2024-03-07T05:51:26;6.78;;;2.80;;
70216;SDS011;65567;55.684;37.570;2024-03-07T05:53:52;6.82;;;2.72;;
70216;SDS011;65567;55.684;37.570;2024-03-07T05:56:18;10.73;;;3.10;;
70216;SDS011;65567;55.684;37.570;2024-03-07T05:58:45;8.73;;;2.63;;
70216;SDS011;65567;55.684;37.570;2024-03-07T06:01:10;9.80;;;2.70;;
70216;SDS011;65567;55.684;37.570;2024-03-07T06:03:36;10.45;;;2.58;;
70216;SDS011;65567;55.684;37.570;2024-03-07T06:06:02;12.30;;;2.85;;
70216;SDS011;65567;55.684;37.570;2024-03-07T06:08:30;9.45;;;2.92;;
70216;SDS011;65567;55.684;37.570;2024-03-07T06:10:56;10.02;;;3.20;;
70216;SDS011;65567;55.684;37.570;2024-03-07T06:13:23;8.57;;;2.95;;
70216;SDS011;65567;55.684;37.570;2024-03-07T06:15:48;6.90;;;2.60;;
70216;SDS011;65567;55.684;37.570;2024-03-07T06:18:14;13.30;;;3.03;;
70216;SDS011;65567;55.684;37.570;2024-03-07T06:20:40;8.45;;;2.75;;
70216;SDS011;65567;55.684;37.570;2024-03-07T06:23:07;21.95;;;3.30;;
70216;SDS011;65567;55.684;37.570;2024-03-07T06:25:34;13.13;;;2.80;;
70216;SDS011;65567;55.684;37.570;2024-03-07T06:28:11;7.78;;;3.13;;
70216;SDS011;65567;55.684;37.570;2024-03-07T06:30:37;9.73;;;2.95;;
70216;SDS011;65567;55.684;37.570;2024-03-07T06:33:05;11.52;;;2.90;;
70216;SDS011;65567;55.684;37.570;2024-03-07T06:35:31;11.68;;;3.47;;
70216;SDS011;65567;55.684;37.570;2024-03-07T06:38:00;11.73;;;2.92;;
70216;SDS011;65567;55.684;37.570;2024-03-07T06:40:26;18.52;;;3.85;;
70216;SDS011;65567;55.684;37.570;2024-03-07T06:42:51;6.90;;;3.05;;
70216;SDS011;65567;55.684;37.570;2024-03-07T06:45:18;6.53;;;2.60;;
70216;SDS011;65567;55.684;37.570;2024-03-07T06:47:44;9.55;;;3.00;;
70216;SDS011;65567;55.684;37.570;2024-03-07T06:50:10;9.57;;;2.95;;
70216;SDS011;65567;55.684;37.570;2024-03-07T06:52:39;9.23;;;4.13;;
70216;SDS011;65567;55.684;37.570;2024-03-07T06:55:08;10.70;;;3.00;;
70216;SDS011;65567;55.684;37.570;2024-03-07T06:57:34;10.98;;;4.05;;
70216;SDS011;65567;55.684;37.570;2024-03-07T07:00:00;7.30;;;3.15;;
70216;SDS011;65567;55.684;37.570;2024-03-07T07:02:26;6.95;;;2.88;;
70216;SDS011;65567;55.684;37.570;2024-03-07T07:04:53;12.63;;;3.85;;
70216;SDS011;65567;55.684;37.570;2024-03-07T07:07:18;9.52;;;3.22;;
70216;SDS011;65567;55.684;37.570;2024-03-07T07:09:45;17.67;;;3.85;;
70216;SDS011;65567;55.684;37.570;2024-03-07T07:12:11;9.82;;;3.70;;
70216;SDS011;65567;55.684;37.570;2024-03-07T07:14:39;10.20;;;3.38;;
70216;SDS011;65567;55.684;37.570;2024-03-07T07:17:05;11.40;;;4.80;;
70216;SDS011;65567;55.684;37.570;2024-03-07T07:19:31;10.40;;;3.63;;
70216;SDS011;65567;55.684;37.570;2024-03-07T07:21:57;6.90;;;3.30;;
70216;SDS011;65567;55.684;37.570;2024-03-07T07:24:23;8.38;;;3.05;;
70216;SDS011;65567;55.684;37.570;2024-03-07T07:26:50;10.45;;;3.08;;
70216;SDS011;65567;55.684;37.570;2024-03-07T07:29:16;7.80;;;2.78;;
70216;SDS011;65567;55.684;37.570;2024-03-07T07:31:42;9.57;;;3.30;;
70216;SDS011;65567;55.684;37.570;2024-03-07T07:34:10;8.38;;;2.78;;
70216;SDS011;65567;55.684;37.570;2024-03-07T07:36:36;11.68;;;3.75;;
70216;SDS011;65567;55.684;37.570;2024-03-07T07:39:02;5.63;;;2.83;;
70216;SDS011;65567;55.684;37.570;2024-03-07T07:41:28;8.77;;;3.20;;
70216;SDS011;65567;55.684;37.570;2024-03-07T07:43:56;9.40;;;2.90;;
70216;SDS011;65567;55.684;37.570;2024-03-07T07:46:22;5.35;;;2.75;;
70216;SDS011;65567;55.684;37.570;2024-03-07T07:48:48;9.43;;;2.75;;
70216;SDS011;65567;55.684;37.570;2024-03-07T07:51:14;11.02;;;3.13;;
70216;SDS011;65567;55.684;37.570;2024-03-07T07:53:40;9.02;;;3.00;;
70216;SDS011;65567;55.684;37.570;2024-03-07T07:56:06;14.63;;;3.70;;
70216;SDS011;65567;55.684;37.570;2024-03-07T07:58:33;10.45;;;3.33;;
70216;SDS011;65567;55.684;37.570;2024-03-07T08:00:59;8.98;;;2.67;;
70216;SDS011;65567;55.684;37.570;2024-03-07T08:03:25;8.77;;;2.80;;
70216;SDS011;65567;55.684;37.570;2024-03-07T08:05:52;5.15;;;2.67;;
70216;SDS011;65567;55.684;37.570;2024-03-07T08:08:19;9.20;;;2.90;;
70216;SDS011;65567;55.684;37.570;2024-03-07T08:10:47;8.68;;;2.30;;
70216;SDS011;65567;55.684;37.570;2024-03-07T08:13:12;6.75;;;2.50;;
70216;SDS011;65567;55.684;37.570;2024-03-07T08:15:38;7.80;;;3.28;;
70216;SDS011;65567;55.684;37.570;2024-03-07T08:18:05;7.03;;;2.50;;
70216;SDS011;65567;55.684;37.570;2024-03-07T08:20:33;8.98;;;3.10;;
70216;SDS011;65567;55.684;37.570;2024-03-07T08:23:00;4.57;;;2.60;;
70216;SDS011;65567;55.684;37.570;2024-03-07T08:25:26;12.63;;;3.28;;
70216;SDS011;65567;55.684;37.570;2024-03-07T08:27:55;7.10;;;2.40;;
70216;SDS011;65567;55.684;37.570;2024-03-07T08:30:23;10.73;;;3.15;;
70216;SDS011;65567;55.684;37.570;2024-03-07T08:32:50;5.57;;;2.92;;
70216;SDS011;65567;55.684;37.570;2024-03-07T08:35:17;5.10;;;2.63;;
70216;SDS011;65567;55.684;37.570;2024-03-07T08:37:44;7.50;;;2.67;;
70216;SDS011;65567;55.684;37.570;2024-03-07T08:40:11;5.50;;;2.65;;
70216;SDS011;65567;55.684;37.570;2024-03-07T08:42:47;10.00;;;2.65;;
70216;SDS011;65567;55.684;37.570;2024-03-07T08:45:16;9.32;;;2.88;;
70216;SDS011;65567;55.684;37.570;2024-03-07T08:47:48;7.45;;;2.10;;
70216;SDS011;65567;55.684;37.570;2024-03-07T08:50:19;8.85;;;2.17;;
70216;SDS011;65567;55.684;37.570;2024-03-07T08:52:45;12.60;;;2.15;;
70216;SDS011;65567;55.684;37.570;2024-03-07T08:55:13;6.63;;;2.00;;
70216;SDS011;65567;55.684;37.570;2024-03-07T08:57:45;8.90;;;2.63;;
70216;SDS011;65567;55.684;37.570;2024-03-07T09:00:12;9.15;;;1.80;;
70216;SDS011;65567;55.684;37.570;2024-03-07T09:02:57;3.63;;;1.85;;
70216;SDS011;65567;55.684;37.570;2024-03-07T09:05:24;8.95;;;2.80;;
70216;SDS011;65567;55.684;37.570;2024-03-07T09:07:51;5.70;;;2.65;;
70216;SDS011;65567;55.684;37.570;2024-03-07T09:10:18;5.78;;;2.28;;
70216;SDS011;65567;55.684;37.570;2024-03-07T09:12:44;8.60;;;2.40;;
70216;SDS011;65567;55.684;37.570;2024-03-07T09:15:11;8.02;;;2.42;;
70216;SDS011;65567;55.684;37.570;2024-03-07T09:17:41;6.68;;;2.25;;
70216;SDS011;65567;55.684;37.570;2024-03-07T09:20:07;6.05;;;2.75;;
70216;SDS011;65567;55.684;37.570;2024-03-07T09:22:42;5.63;;;2.35;;
70216;SDS011;65567;55.684;37.570;2024-03-07T09:25:08;8.68;;;2.83;;
70216;SDS011;65567;55.684;37.570;2024-03-07T09:27:35;5.50;;;2.65;;
70216;SDS011;65567;55.684;37.570;2024-03-07T09:30:03;14.15;;;2.47;;
70216;SDS011;65567;55.684;37.570;2024-03-07T09:32:30;5.95;;;1.90;;
70216;SDS011;65567;55.684;37.570;2024-03-07T09:34:58;6.75;;;2.30;;
70216;SDS011;65567;55.684;37.570;2024-03-07T09:37:25;5.30;;;1.98;;
70216;SDS011;65567;55.684;37.570;2024-03-07T09:39:51;7.38;;;2.50;;
70216;SDS011;65567;55.684;37.570;2024-03-07T09:42:17;5.30;;;2.13;;
70216;SDS011;65567;55.684;37.570;2024-03-07T09:44:43;6.97;;;1.90;;
70216;SDS011;65567;55.684;37.570;2024-03-07T09:47:12;6.90;;;2.57;;
70216;SDS011;65567;55.684;37.570;2024-03-07T09:49:39;6.53;;;2.20;;
70216;SDS011;65567;55.684;37.570;2024-03-07T09:52:07;5.25;;;2.25;;
70216;SDS011;65567;55.684;37.570;2024-03-07T09:54:36;5.50;;;2.08;;
70216;SDS011;65567;55.684;37.570;2024-03-07T09:57:03;4.65;;;2.42;;
70216;SDS011;65567;55.684;37.570;2024-03-07T09:59:34;8.35;;;2.05;;
70216;SDS011;65567;55.684;37.570;2024-03-07T10:02:06;8.85;;;3.13;;
70216;SDS011;65567;55.684;37.570;2024-03-07T10:04:39;5.82;;;1.60;;
70216;SDS011;65567;55.684;37.570;2024-03-07T10:07:16;6.35;;;2.08;;
70216;SDS011;65567;55.684;37.570;2024-03-07T10:09:43;4.68;;;1.92;;
70216;SDS011;65567;55.684;37.570;2024-03-07T10:12:10;4.45;;;1.52;;
70216;SDS011;65567;55.684;37.570;2024-03-07T10:15:02;4.85;;;1.75;;
70216;SDS011;65567;55.684;37.570;2024-03-07T10:17:24;7.65;;;2.00;;
70216;SDS011;65567;55.684;37.570;2024-03-07T10:19:52;7.40;;;2.20;;
70216;SDS011;65567;55.684;37.570;2024-03-07T10:22:19;8.73;;;1.98;;
70216;SDS011;65567;55.684;37.570;2024-03-07T10:24:51;6.00;;;1.80;;
70216;SDS011;65567;55.684;37.570;2024-03-07T10:27:21;4.35;;;2.30;;
70216;SDS011;65567;55.684;37.570;2024-03-07T10:29:48;3.42;;;1.90;;
70216;SDS011;65567;55.684;37.570;2024-03-07T10:32:20;5.45;;;2.20;;
70216;SDS011;65567;55.684;37.570;2024-03-07T10:34:50;4.40;;;2.03;;
70216;SDS011;65567;55.684;37.570;2024-03-07T10:37:16;4.60;;;1.50;;
70216;SDS011;65567;55.684;37.570;2024-03-07T10:39:46;3.45;;;1.60;;
70216;SDS011;65567;55.684;37.570;2024-03-07T10:42:14;4.90;;;1.60;;
70216;SDS011;65567;55.684;37.570;2024-03-07T10:44:44;5.05;;;2.17;;
70216;SDS011;65567;55.684;37.570;2024-03-07T10:47:15;3.38;;;1.40;;
70216;SDS011;65567;55.684;37.570;2024-03-07T10:50:00;8.57;;;1.98;;
70216;SDS011;65567;55.684;37.570;2024-03-07T11:01:00;5.07;;;1.50;;
70216;SDS011;65567;55.684;37.570;2024-03-07T11:03:28;3.22;;;1.27;;
70216;SDS011;65567;55.684;37.570;2024-03-07T11:05:57;3.60;;;1.77;;
70216;SDS011;65567;55.684;37.570;2024-03-07T11:08:30;3.33;;;1.65;;
70216;SDS011;65567;55.684;37.570;2024-03-07T11:10:57;5.20;;;1.58;;
70216;SDS011;65567;55.684;37.570;2024-03-07T11:13:22;4.80;;;1.80;;
70216;SDS011;65567;55.684;37.570;2024-03-07T11:15:49;4.68;;;1.83;;
70216;SDS011;65567;55.684;37.570;2024-03-07T11:18:16;4.05;;;2.08;;
70216;SDS011;65567;55.684;37.570;2024-03-07T11:20:42;4.15;;;1.83;;
70216;SDS011;65567;55.684;37.570;2024-03-07T11:23:33;4.60;;;1.67;;
70216;SDS011;65567;55.684;37.570;2024-03-07T11:28:32;6.50;;;1.63;;
70216;SDS011;65567;55.684;37.570;2024-03-07T11:34:12;5.55;;;1.75;;
70216;SDS011;65567;55.684;37.570;2024-03-07T11:36:45;3.42;;;1.38;;
70216;SDS011;65567;55.684;37.570;2024-03-07T11:42:29;7.53;;;1.75;;
70216;SDS011;65567;55.684;37.570;2024-03-07T11:44:56;5.47;;;1.95;;
70216;SDS011;65567;55.684;37.570;2024-03-07T11:47:23;4.40;;;1.80;;
70216;SDS011;65567;55.684;37.570;2024-03-07T11:49:53;3.85;;;1.77;;
70216;SDS011;65567;55.684;37.570;2024-03-07T11:52:18;3.58;;;1.42;;
70216;SDS011;65567;55.684;37.570;2024-03-07T11:54:45;4.68;;;1.88;;
70216;SDS011;65567;55.684;37.570;2024-03-07T11:57:20;6.03;;;2.20;;
70216;SDS011;65567;55.684;37.570;2024-03-07T11:59:51;4.40;;;1.52;;
70216;SDS011;65567;55.684;37.570;2024-03-07T12:02:21;3.80;;;1.52;;
70216;SDS011;65567;55.684;37.570;2024-03-07T12:04:47;4.18;;;1.80;;
70216;SDS011;65567;55.684;37.570;2024-03-07T12:07:16;3.75;;;2.10;;
70216;SDS011;65567;55.684;37.570;2024-03-07T12:09:48;5.43;;;2.22;;
70216;SDS011;65567;55.684;37.570;2024-03-07T12:12:16;4.93;;;2.10;;
70216;SDS011;65567;55.684;37.570;2024-03-07T12:14:43;3.25;;;1.75;;
70216;SDS011;65567;55.684;37.570;2024-03-07T12:17:08;3.83;;;1.55;;
70216;SDS011;65567;55.684;37.570;2024-03-07T12:19:34;3.97;;;1.60;;
70216;SDS011;65567;55.684;37.570;2024-03-07T12:22:03;3.08;;;1.40;;
70216;SDS011;65567;55.684;37.570;2024-03-07T12:24:40;5.43;;;1.80;;
70216;SDS011;65567;55.684;37.570;2024-03-07T12:29:36;3.40;;;1.40;;
70216;SDS011;65567;55.684;37.570;2024-03-07T12:32:08;4.18;;;1.63;;
70216;SDS011;65567;55.684;37.570;2024-03-07T12:34:38;5.85;;;1.80;;
70216;SDS011;65567;55.684;37.570;2024-03-07T12:37:10;5.72;;;1.80;;
70216;SDS011;65567;55.684;37.570;2024-03-07T12:39:41;4.22;;;1.63;;
70216;SDS011;65567;55.684;37.570;2024-03-07T12:42:16;4.50;;;1.65;;
70216;SDS011;65567;55.684;37.570;2024-03-07T12:44:43;4.78;;;1.88;;
70216;SDS011;65567;55.684;37.570;2024-03-07T12:47:13;5.35;;;1.85;;
70216;SDS011;65567;55.684;37.570;2024-03-07T12:49:40;4.60;;;2.10;;
70216;SDS011;65567;55.684;37.570;2024-03-07T12:52:06;4.22;;;1.90;;
70216;SDS011;65567;55.684;37.570;2024-03-07T12:54:36;6.07;;;1.85;;
70216;SDS011;65567;55.684;37.570;2024-03-07T12:57:08;4.07;;;1.88;;
70216;SDS011;65567;55.684;37.570;2024-03-07T12:59:37;3.47;;;1.83;;
70216;SDS011;65567;55.684;37.570;2024-03-07T13:02:12;5.80;;;1.75;;
70216;SDS011;65567;55.684;37.570;2024-03-07T13:04:38;3.85;;;1.50;;
70216;SDS011;65567;55.684;37.570;2024-03-07T13:07:04;4.50;;;1.90;;
70216;SDS011;65567;55.684;37.570;2024-03-07T13:09:39;4.95;;;1.73;;
70216;SDS011;65567;55.684;37.570;2024-03-07T13:12:06;5.10;;;1.95;;
70216;SDS011;65567;55.684;37.570;2024-03-07T13:14:34;2.97;;;1.40;;
70216;SDS011;65567;55.684;37.570;2024-03-07T13:17:00;6.28;;;1.60;;
70216;SDS011;65567;55.684;37.570;2024-03-07T13:19:32;4.03;;;1.63;;
70216;SDS011;65567;55.684;37.570;2024-03-07T13:21:58;2.60;;;1.48;;
70216;SDS011;65567;55.684;37.570;2024-03-07T13:24:24;4.20;;;1.42;;
70216;SDS011;65567;55.684;37.570;2024-03-07T13:26:50;2.83;;;1.38;;
70216;SDS011;65567;55.684;37.570;2024-03-07T13:29:17;4.68;;;1.50;;
70216;SDS011;65567;55.684;37.570;2024-03-07T13:31:52;5.45;;;1.70;;
70216;SDS011;65567;55.684;37.570;2024-03-07T13:34:20;3.25;;;1.63;;
70216;SDS011;65567;55.684;37.570;2024-03-07T13:36:53;5.18;;;1.52;;
70216;SDS011;65567;55.684;37.570;2024-03-07T13:39:23;4.68;;;1.73;;
70216;SDS011;65567;55.684;37.570;2024-03-07T13:41:50;5.32;;;1.75;;
70216;SDS011;65567;55.684;37.570;2024-03-07T13:44:15;6.45;;;2.17;;
70216;SDS011;65567;55.684;37.570;2024-03-07T13:46:41;3.65;;;1.40;;
70216;SDS011;65567;55.684;37.570;2024-03-07T13:49:07;3.92;;;1.52;;
70216;SDS011;65567;55.684;37.570;2024-03-07T13:51:37;2.95;;;1.77;;
70216;SDS011;65567;55.684;37.570;2024-03-07T13:54:06;4.72;;;1.30;;
70216;SDS011;65567;55.684;37.570;2024-03-07T13:57:01;5.40;;;1.40;;
70216;SDS011;65567;55.684;37.570;2024-03-07T13:59:49;5.15;;;1.33;;
70216;SDS011;65567;55.684;37.570;2024-03-07T14:02:30;3.97;;;1.33;;
70216;SDS011;65567;55.684;37.570;2024-03-07T14:05:23;7.70;;;1.67;;
70216;SDS011;65567;55.684;37.570;2024-03-07T14:23:01;4.28;;;1.38;;
70216;SDS011;65567;55.684;37.570;2024-03-07T14:30:54;4.75;;;1.25;;
70216;SDS011;65567;55.684;37.570;2024-03-07T14:33:35;3.75;;;1.65;;
70216;SDS011;65567;55.684;37.570;2024-03-07T14:36:14;4.45;;;1.20;;
70216;SDS011;65567;55.684;37.570;2024-03-07T14:41:17;3.47;;;1.83;;
70216;SDS011;65567;55.684;37.570;2024-03-07T14:43:44;2.65;;;1.48;;
70216;SDS011;65567;55.684;37.570;2024-03-07T14:46:11;7.75;;;1.77;;
70216;SDS011;65567;55.684;37.570;2024-03-07T14:48:38;4.20;;;1.40;;
70216;SDS011;65567;55.684;37.570;2024-03-07T14:51:05;4.40;;;1.80;;
70216;SDS011;65567;55.684;37.570;2024-03-07T14:53:33;3.70;;;1.73;;
70216;SDS011;65567;55.684;37.570;2024-03-07T14:55:59;4.40;;;1.58;;
70216;SDS011;65567;55.684;37.570;2024-03-07T14:58:25;4.72;;;1.50;;
70216;SDS011;65567;55.684;37.570;2024-03-07T15:00:51;2.95;;;1.40;;
70216;SDS011;65567;55.684;37.570;2024-03-07T15:03:19;3.03;;;1.30;;
70216;SDS011;65567;55.684;37.570;2024-03-07T15:05:46;3.88;;;1.20;;
70216;SDS011;65567;55.684;37.570;2024-03-07T15:08:16;4.47;;;1.60;;
70216;SDS011;65567;55.684;37.570;2024-03-07T15:10:44;5.15;;;1.50;;
70216;SDS011;65567;55.684;37.570;2024-03-07T15:13:15;3.17;;;1.40;;
70216;SDS011;65567;55.684;37.570;2024-03-07T15:15:42;3.00;;;1.40;;
70216;SDS011;65567;55.684;37.570;2024-03-07T15:18:09;7.47;;;1.48;;
70216;SDS011;65567;55.684;37.570;2024-03-07T15:20:35;7.22;;;2.53;;
70216;SDS011;65567;55.684;37.570;2024-03-07T15:23:02;4.35;;;1.60;;